Montezuma, NM (87731)

1:46 AM MST on December 18, 2014 (GMT -0700)
Las Vegas Municipal | Change Station
CLOSE
Current Station
Airport
Location: Las Vegas,
Elevation: 6877 ft
Nearby Weather Stations

Elev 6877 ft 35.65 °N, 105.14 °W | Updated 53 minutes ago

Clear
Clear
27 °F
Feels Like 19 °F
N
8
Wind Variable Wind from WSW

Today
High -- | Low -- °F
--% Chance of Precip.
Yesterday
High -- | Low -- °F
Precip. -- in
7:05 AM 4:50 PM
Waning Crescent, 16% visible
Pressure 29.91 in
Visibility 10.0 miles
Clouds Clear
Windchill 19 °F
Dew Point 22 °F
Humidity 81%
Rainfall 0.00 in
Snow Depth Not available.
UV 0 out of 12
Pollen 3.30 out of 12
Air Quality Not available.
Flu Activity Not available.
METAR KLVS 180753Z AUTO 24007KT 10SM CLR M03/M06 A2998 RMK AO2 SLP128 T10281056

More Conditions Fewer Conditions

Pressure 29.91 in
Visibility 10.0 miles
Clouds Clear
Windchill 19 °F
Dew Point 22 °F
Humidity 81%
Rainfall 0.00 in
Snow Depth Not available.
UV 0 out of 12
Pollen 3.30 out of 12
Air Quality Not available.
Flu Activity Not available.
METAR KLVS 180753Z AUTO 24007KT 10SM CLR M03/M06 A2998 RMK AO2 SLP128 T10281056

More Conditions Fewer Conditions

Nowcast | as of 11:46 PM MST on December 17, 2014

Snow showers will continue overnight...with visibilities reduced in patchy fog. Snow showers and fog near Los Alamos and the Santa Fe Metro area will move east across the southern portions of the Sangre de Cristo Mountains...and across Interstate 25 near Las Vegas and Wagon Mound. More snow showers continue near Red River and Angel Fire. Expect light snow of less than an inch with reduced visibilities in fog overnight.

×

10-Day Weather Forecast

Almanac

Astronomy

Dec. 18, 2014 Rise Set
Actual Time
Civil Twilight
Nautical Twilight
Astronomical Twilight
Moon
Length of Visible Light
Length of Day
Tomorrow will be .
, % of the Moon is Illuminated

Today's Extremes

State Highs State Lows

Community

WunderPhotos

Upload Photos

1,778,907 photos uploaded!

WunderBlogs® & News

Nearby

Air Quality

  Air Quality AQ Index Pollutant
Not available.

Snow Depth

Station Depth Elevation

Earthquake Activity

City Distance Mag. Time & Date
Minimum magnitude displayed is 2.5.

Coastal Water Temperatures

Place Temperature

Nearby Weather Stations